createdAt,value
2023-10-10T00:02:30.010Z,64.01
2023-10-10T00:05:19.613Z,63.93
2023-10-10T00:08:06.900Z,63.95
2023-10-10T00:10:52.538Z,63.77
2023-10-10T00:13:43.989Z,63.90
2023-10-10T00:16:39.712Z,63.91
2023-10-10T00:19:27.787Z,63.94
2023-10-10T00:22:13.434Z,63.92
2023-10-10T00:24:59.019Z,64.00
2023-10-10T00:27:45.058Z,64.01
2023-10-10T00:30:43.776Z,63.87
2023-10-10T00:33:32.281Z,63.86
2023-10-10T00:36:32.618Z,63.84
2023-10-10T00:39:17.839Z,63.84
2023-10-10T00:42:08.989Z,63.88
2023-10-10T00:44:54.772Z,63.82
2023-10-10T00:47:45.869Z,63.89
2023-10-10T00:50:35.631Z,63.78
2023-10-10T00:53:24.329Z,63.87
2023-10-10T00:56:10.246Z,63.85
2023-10-10T00:58:55.756Z,63.89
2023-10-10T01:01:41.842Z,63.75
2023-10-10T01:04:36.917Z,63.00
2023-10-10T01:07:27.122Z,64.68
2023-10-10T01:10:12.674Z,63.55
2023-10-10T01:12:59.940Z,63.42
2023-10-10T01:15:45.700Z,63.16
2023-10-10T01:18:32.730Z,63.16
2023-10-10T01:21:43.378Z,63.05
2023-10-10T01:24:31.475Z,63.26
2023-10-10T01:27:17.598Z,64.07
2023-10-10T01:30:19.180Z,62.94
2023-10-10T01:33:05.122Z,62.37
2023-10-10T01:35:53.925Z,61.91
2023-10-10T01:38:45.330Z,62.09
2023-10-10T01:41:39.858Z,61.51
2023-10-10T01:44:29.071Z,61.43
2023-10-10T01:47:26.787Z,61.22
2023-10-10T01:50:14.895Z,61.40
2023-10-10T01:53:01.403Z,61.47
2023-10-10T01:55:48.793Z,61.34
2023-10-10T01:58:38.147Z,61.37
2023-10-10T02:01:25.764Z,61.30
2023-10-10T02:04:11.928Z,61.63
2023-10-10T02:06:58.809Z,61.72
2023-10-10T02:09:54.416Z,61.43
2023-10-10T02:12:46.166Z,61.48
2023-10-10T02:15:37.008Z,61.53
2023-10-10T02:18:38.691Z,61.30
2023-10-10T02:21:33.428Z,61.26
2023-10-10T02:24:30.649Z,61.36
2023-10-10T02:27:23.414Z,61.64
2023-10-10T02:30:13.525Z,61.33
2023-10-10T02:32:59.255Z,61.29
2023-10-10T02:36:03.537Z,61.25
2023-10-10T02:38:57.634Z,61.11
2023-10-10T02:41:49.850Z,61.10
2023-10-10T02:44:35.484Z,60.78
2023-10-10T02:47:32.479Z,60.75
2023-10-10T02:50:38.942Z,60.65
2023-10-10T02:53:24.651Z,60.70
2023-10-10T02:56:20.001Z,60.76
2023-10-10T02:59:06.620Z,60.69
2023-10-10T03:01:56.290Z,60.59
2023-10-10T03:04:56.839Z,60.83
2023-10-10T03:07:43.609Z,60.61
2023-10-10T03:10:42.854Z,60.62
2023-10-10T03:13:37.021Z,60.66
2023-10-10T03:16:23.622Z,60.55
2023-10-10T03:19:20.775Z,60.47
2023-10-10T03:22:30.330Z,60.53
2023-10-10T03:25:23.279Z,60.58
2023-10-10T03:28:19.993Z,60.64
2023-10-10T03:31:08.875Z,60.62
2023-10-10T03:34:12.766Z,60.47
2023-10-10T03:37:21.406Z,60.53
2023-10-10T03:40:27.590Z,60.51
2023-10-10T03:43:32.708Z,60.39
2023-10-10T03:46:39.690Z,60.57
2023-10-10T03:49:44.043Z,60.46
2023-10-10T03:52:47.971Z,60.47
2023-10-10T03:55:56.301Z,60.36
2023-10-10T03:59:00.414Z,60.49
2023-10-10T04:02:04.221Z,60.46
2023-10-10T04:05:23.780Z,60.43
2023-10-10T04:08:30.914Z,60.51
2023-10-10T04:11:34.978Z,60.25
2023-10-10T04:14:38.982Z,60.40
2023-10-10T04:17:42.941Z,60.17
2023-10-10T04:20:46.747Z,60.14
2023-10-10T04:23:50.523Z,59.75
2023-10-10T04:26:54.595Z,59.90
2023-10-10T04:29:58.603Z,59.68
2023-10-10T04:33:02.649Z,59.54
2023-10-10T04:36:06.383Z,59.31
2023-10-10T04:39:10.138Z,59.49
2023-10-10T04:42:14.113Z,59.29
2023-10-10T04:45:17.892Z,59.15
2023-10-10T04:48:21.650Z,59.88
2023-10-10T04:51:25.504Z,59.21
2023-10-10T04:54:29.715Z,59.17
2023-10-10T04:57:33.387Z,58.98
2023-10-10T05:00:37.385Z,58.98
2023-10-10T05:03:41.360Z,59.03
2023-10-10T05:06:45.174Z,59.12
2023-10-10T05:09:49.243Z,59.01
2023-10-10T05:12:53.265Z,59.01
2023-10-10T05:15:57.144Z,59.09
2023-10-10T05:19:01.230Z,59.25
2023-10-10T05:22:05.645Z,59.26
2023-10-10T05:24:53.100Z,59.25
2023-10-10T05:27:42.345Z,59.30
2023-10-10T05:30:41.030Z,59.32
2023-10-10T05:33:31.497Z,59.20
2023-10-10T05:36:19.794Z,59.31
2023-10-10T05:39:06.170Z,59.46
2023-10-10T05:41:55.718Z,59.33
2023-10-10T05:44:42.518Z,59.30
2023-10-10T05:47:28.148Z,59.28
2023-10-10T05:50:14.356Z,59.28
2023-10-10T05:53:01.936Z,59.22
2023-10-10T05:55:54.483Z,59.17
2023-10-10T05:58:44.198Z,59.29
2023-10-10T06:01:31.833Z,59.12
2023-10-10T06:04:17.490Z,59.11
2023-10-10T06:07:04.731Z,59.37
2023-10-10T06:09:52.865Z,59.41
2023-10-10T06:12:38.192Z,59.45
2023-10-10T06:15:23.450Z,60.48
2023-10-10T06:18:15.149Z,59.51
2023-10-10T06:21:10.135Z,59.46
2023-10-10T06:24:31.095Z,59.28
2023-10-10T06:27:19.102Z,59.62
2023-10-10T06:30:05.724Z,59.52
2023-10-10T06:32:52.141Z,59.39
2023-10-10T06:35:39.115Z,59.54
2023-10-10T06:38:25.912Z,59.45
2023-10-10T06:41:19.046Z,59.54
2023-10-10T06:44:23.695Z,59.30
2023-10-10T06:47:13.480Z,59.32
2023-10-10T06:50:03.607Z,59.34
2023-10-10T06:52:53.495Z,59.30
2023-10-10T06:55:38.726Z,59.36
2023-10-10T06:58:23.909Z,59.42
2023-10-10T07:01:09.289Z,59.24
2023-10-10T07:03:57.488Z,59.35
2023-10-10T07:06:46.067Z,59.32
2023-10-10T07:09:31.681Z,59.00
2023-10-10T07:12:17.652Z,59.49
2023-10-10T07:15:07.699Z,59.42
2023-10-10T07:18:09.826Z,59.39
2023-10-10T07:21:05.762Z,59.36
2023-10-10T07:24:20.413Z,59.38
2023-10-10T07:27:12.576Z,59.43
2023-10-10T07:29:59.172Z,59.63
2023-10-10T07:32:45.366Z,59.81
2023-10-10T07:35:37.269Z,59.65
2023-10-10T07:38:30.214Z,59.64
2023-10-10T07:41:20.787Z,59.97
2023-10-10T07:44:06.512Z,59.73
2023-10-10T07:47:11.136Z,59.82
2023-10-10T07:50:00.610Z,59.44
2023-10-10T07:52:46.177Z,59.56
2023-10-10T07:55:51.851Z,59.54
2023-10-10T07:58:53.694Z,59.62
2023-10-10T08:01:39.433Z,59.46
2023-10-10T08:04:26.700Z,59.06
2023-10-10T08:07:12.395Z,59.12
2023-10-10T08:10:14.586Z,59.23
2023-10-10T08:13:01.736Z,59.16
2023-10-10T08:15:57.139Z,59.33
2023-10-10T08:18:48.333Z,59.18
2023-10-10T08:21:40.742Z,59.34
2023-10-10T08:24:25.987Z,59.60
2023-10-10T08:27:12.239Z,59.07
2023-10-10T08:29:57.291Z,59.28
2023-10-10T08:32:42.635Z,59.52
2023-10-10T08:35:31.942Z,59.16
2023-10-10T08:38:21.344Z,59.10
2023-10-10T08:41:09.932Z,58.94
2023-10-10T08:43:59.312Z,58.81
2023-10-10T08:46:50.156Z,59.02
2023-10-10T08:49:36.660Z,59.20
2023-10-10T08:52:23.654Z,59.28
2023-10-10T08:55:11.479Z,59.33
2023-10-10T08:57:57.134Z,59.08
2023-10-10T09:00:42.716Z,59.19
2023-10-10T09:03:28.385Z,59.21
2023-10-10T09:06:22.582Z,59.00
2023-10-10T09:09:27.674Z,59.19
2023-10-10T09:12:16.298Z,59.12
2023-10-10T09:15:18.092Z,59.13
2023-10-10T09:18:24.040Z,59.14
2023-10-10T09:21:20.436Z,58.88
2023-10-10T09:24:28.549Z,58.93
2023-10-10T09:27:22.875Z,58.83
2023-10-10T09:30:11.020Z,58.70
2023-10-10T09:33:14.168Z,58.64
2023-10-10T09:36:11.153Z,58.91
2023-10-10T09:39:18.138Z,58.80
2023-10-10T09:42:24.805Z,58.31
2023-10-10T09:45:27.846Z,58.51
2023-10-10T09:48:32.467Z,58.43
2023-10-10T09:51:37.311Z,58.63
2023-10-10T09:54:26.565Z,59.01
2023-10-10T10:00:19.966Z,58.88
2023-10-10T10:03:32.483Z,58.86
2023-10-10T10:06:27.387Z,58.87
2023-10-10T10:09:34.213Z,59.12
2023-10-10T10:12:42.812Z,59.26
2023-10-10T10:16:20.904Z,59.19
2023-10-10T10:19:15.317Z,59.06
2023-10-10T10:22:14.886Z,59.04
2023-10-10T10:25:29.826Z,59.03
2023-10-10T10:28:21.289Z,58.96
2023-10-10T10:31:09.231Z,58.82
2023-10-10T10:34:11.293Z,58.80
2023-10-10T10:37:08.045Z,58.80
2023-10-10T10:40:13.111Z,58.69
2023-10-10T10:42:59.413Z,58.48
2023-10-10T10:46:13.461Z,58.53
2023-10-10T10:49:06.969Z,58.49
2023-10-10T10:52:13.414Z,58.60
2023-10-10T10:55:18.529Z,58.37
2023-10-10T10:58:10.255Z,58.34
2023-10-10T11:01:08.621Z,58.13
2023-10-10T11:03:55.189Z,58.29
2023-10-10T11:06:51.535Z,58.67
2023-10-10T11:09:44.855Z,57.97
2023-10-10T11:12:33.355Z,57.91
2023-10-10T11:15:19.147Z,58.12
2023-10-10T11:18:09.484Z,58.30
2023-10-10T11:21:08.098Z,58.09
2023-10-10T11:23:54.080Z,58.03
2023-10-10T11:26:41.012Z,58.13
2023-10-10T11:29:29.344Z,58.26
2023-10-10T11:32:25.640Z,58.02
2023-10-10T11:35:17.188Z,58.38
2023-10-10T11:38:10.714Z,57.86
2023-10-10T11:41:00.900Z,57.95
2023-10-10T11:44:03.996Z,57.98
2023-10-10T11:46:50.822Z,58.02
2023-10-10T11:49:36.757Z,57.95
2023-10-10T11:52:22.519Z,58.07
2023-10-10T11:55:09.614Z,58.08
2023-10-10T11:57:59.396Z,58.12
2023-10-10T12:00:46.949Z,58.01
2023-10-10T12:03:43.063Z,57.70
2023-10-10T12:06:28.910Z,58.02
2023-10-10T12:09:20.789Z,57.96
2023-10-10T12:12:06.121Z,57.59
2023-10-10T12:14:51.721Z,57.67
2023-10-10T12:17:39.533Z,57.44
2023-10-10T12:20:26.241Z,57.35
2023-10-10T12:23:12.184Z,57.30
2023-10-10T12:26:00.451Z,57.44
2023-10-10T12:28:49.658Z,57.37
2023-10-10T12:31:35.870Z,57.34
2023-10-10T12:34:22.649Z,57.26
2023-10-10T12:37:08.222Z,57.22
2023-10-10T12:39:53.872Z,57.25
2023-10-10T12:42:40.374Z,57.45
2023-10-10T12:45:25.476Z,57.35
2023-10-10T12:48:21.572Z,57.48
2023-10-10T12:51:11.811Z,57.35
2023-10-10T12:54:09.891Z,57.25
2023-10-10T12:57:03.839Z,57.22
2023-10-10T12:59:49.704Z,57.26
2023-10-10T13:02:35.038Z,56.99
2023-10-10T13:05:28.289Z,57.18
2023-10-10T13:08:16.444Z,57.11
2023-10-10T13:11:04.052Z,57.09
2023-10-10T13:13:53.106Z,56.95
2023-10-10T13:16:40.329Z,56.94
2023-10-10T13:19:26.825Z,57.11
2023-10-10T13:22:22.501Z,56.97
2023-10-10T13:25:11.550Z,57.05
2023-10-10T13:27:56.806Z,57.10
2023-10-10T13:30:42.723Z,57.07
2023-10-10T13:33:28.125Z,56.81
2023-10-10T13:36:16.976Z,56.88
2023-10-10T13:39:07.350Z,56.92
2023-10-10T13:41:53.810Z,56.84
2023-10-10T13:44:40.753Z,56.79
2023-10-10T13:47:26.523Z,56.82
2023-10-10T13:50:29.789Z,56.75
2023-10-10T13:53:16.286Z,56.98
2023-10-10T13:56:05.060Z,56.87
2023-10-10T13:58:53.363Z,56.83
2023-10-10T14:01:41.451Z,56.66
2023-10-10T14:04:39.294Z,56.87
2023-10-10T14:07:26.282Z,56.71
2023-10-10T14:10:11.523Z,56.71
2023-10-10T14:13:06.488Z,56.73
2023-10-10T14:15:59.544Z,56.59
2023-10-10T14:18:48.727Z,56.68
2023-10-10T14:21:34.219Z,56.83
2023-10-10T14:24:20.221Z,56.57
2023-10-10T14:27:06.591Z,56.84
2023-10-10T14:29:52.036Z,56.76
2023-10-10T14:32:42.650Z,56.75
2023-10-10T14:35:28.464Z,56.72
2023-10-10T14:38:17.572Z,56.77
2023-10-10T14:41:02.957Z,56.61
2023-10-10T14:43:51.001Z,56.49
2023-10-10T14:46:36.496Z,56.48
2023-10-10T14:49:30.171Z,56.65
2023-10-10T14:52:18.359Z,56.57
2023-10-10T14:55:09.018Z,56.67
2023-10-10T14:57:56.610Z,56.64
2023-10-10T15:00:43.872Z,56.70
2023-10-10T15:03:31.464Z,56.74
2023-10-10T15:06:17.431Z,56.89
2023-10-10T15:09:03.812Z,57.06
2023-10-10T15:11:49.133Z,57.24
2023-10-10T15:14:34.485Z,57.37
2023-10-10T15:17:21.640Z,57.41
2023-10-10T15:20:07.755Z,57.82
2023-10-10T15:22:53.272Z,57.63
2023-10-10T15:25:40.697Z,57.76
2023-10-10T15:28:26.892Z,57.64
2023-10-10T15:31:13.344Z,57.44
2023-10-10T15:33:59.531Z,57.68
2023-10-10T15:36:45.226Z,57.57
2023-10-10T15:39:31.187Z,57.49
2023-10-10T15:42:16.978Z,57.49
2023-10-10T15:45:06.216Z,57.41
2023-10-10T15:47:55.922Z,57.30
2023-10-10T15:50:47.743Z,57.22
2023-10-10T15:53:33.165Z,57.08
2023-10-10T15:56:18.710Z,56.90
2023-10-10T15:59:04.727Z,57.02
2023-10-10T16:01:50.237Z,57.10
2023-10-10T16:04:35.335Z,57.37
2023-10-10T16:07:21.334Z,58.17
2023-10-10T16:10:08.954Z,59.04
2023-10-10T16:12:54.501Z,59.66
2023-10-10T16:15:40.115Z,59.11
2023-10-10T16:21:10.752Z,59.07
2023-10-10T16:23:56.189Z,58.82
2023-10-10T16:26:45.540Z,59.02
2023-10-10T16:29:36.978Z,58.76
2023-10-10T16:32:22.656Z,58.95
2023-10-10T16:35:12.311Z,58.66
2023-10-10T16:37:57.841Z,58.92
2023-10-10T16:40:44.039Z,58.95
2023-10-10T16:43:43.136Z,58.75
2023-10-10T16:46:35.811Z,58.73
2023-10-10T16:49:24.070Z,58.70
2023-10-10T16:52:09.365Z,58.67
2023-10-10T16:54:54.927Z,58.60
2023-10-10T16:57:41.155Z,58.44
2023-10-10T17:00:26.746Z,58.31
2023-10-10T17:03:13.321Z,58.24
2023-10-10T17:06:02.771Z,58.37
2023-10-10T17:08:48.174Z,58.20
2023-10-10T17:11:33.455Z,58.33
2023-10-10T17:14:21.548Z,58.05
2023-10-10T17:17:07.305Z,57.70
2023-10-10T17:19:52.562Z,57.94
2023-10-10T17:22:38.043Z,57.91
2023-10-10T17:25:23.400Z,57.62
2023-10-10T17:28:08.944Z,57.52
2023-10-10T17:31:00.116Z,57.90
2023-10-10T17:33:45.908Z,57.92
2023-10-10T17:36:31.084Z,57.92
2023-10-10T17:39:17.433Z,57.82
2023-10-10T17:42:03.495Z,58.00
2023-10-10T17:44:49.223Z,58.16
2023-10-10T17:47:34.896Z,58.09
2023-10-10T17:50:23.234Z,58.22
2023-10-10T17:53:13.095Z,58.40
2023-10-10T17:56:01.040Z,58.28
2023-10-10T17:58:47.459Z,58.70
2023-10-10T18:01:32.878Z,58.37
2023-10-10T18:04:18.567Z,58.38
2023-10-10T18:07:06.367Z,58.53
2023-10-10T18:09:55.444Z,58.50
2023-10-10T18:12:42.200Z,58.52
2023-10-10T18:15:27.496Z,58.36
2023-10-10T18:18:12.939Z,58.76
2023-10-10T18:20:58.787Z,58.48
2023-10-10T18:23:44.797Z,58.86
2023-10-10T18:26:30.646Z,59.39
2023-10-10T18:29:16.960Z,59.33
2023-10-10T18:32:05.167Z,59.61
2023-10-10T18:34:50.937Z,59.66
2023-10-10T18:37:37.692Z,59.85
2023-10-10T18:40:23.075Z,60.08
2023-10-10T18:43:10.554Z,60.04
2023-10-10T18:45:56.112Z,60.10
2023-10-10T18:48:41.978Z,60.03
2023-10-10T18:51:27.979Z,60.35
2023-10-10T18:54:13.988Z,60.18
2023-10-10T18:57:00.393Z,60.47
2023-10-10T18:59:47.928Z,60.26
2023-10-10T19:02:33.641Z,60.37
2023-10-10T19:05:19.841Z,60.15
2023-10-10T19:08:05.587Z,60.30
2023-10-10T19:10:52.151Z,60.54
2023-10-10T19:13:39.019Z,59.96
2023-10-10T19:16:24.352Z,60.21
2023-10-10T19:19:09.919Z,60.17
2023-10-10T19:21:55.390Z,59.90
2023-10-10T19:24:41.132Z,59.82
2023-10-10T19:27:27.558Z,59.86
2023-10-10T19:30:17.331Z,59.66
2023-10-10T19:33:02.867Z,59.81
2023-10-10T19:35:48.144Z,59.59
2023-10-10T19:38:34.458Z,59.49
2023-10-10T19:41:20.085Z,59.47
2023-10-10T19:44:07.265Z,59.35
2023-10-10T19:46:54.843Z,59.36
2023-10-10T19:49:40.220Z,59.42
2023-10-10T19:52:26.575Z,59.40
2023-10-10T19:55:21.411Z,59.56
2023-10-10T19:58:11.090Z,59.55
2023-10-10T20:00:59.911Z,59.41
2023-10-10T20:03:48.308Z,59.37
2023-10-10T20:06:33.625Z,59.32
2023-10-10T20:09:21.676Z,59.42
2023-10-10T20:12:07.441Z,59.42
2023-10-10T20:14:52.920Z,59.48
2023-10-10T20:17:38.252Z,59.28
2023-10-10T20:20:27.191Z,59.44
2023-10-10T20:23:12.696Z,59.27
2023-10-10T20:25:58.101Z,59.54
2023-10-10T20:28:43.859Z,59.83
2023-10-10T20:31:29.302Z,59.71
2023-10-10T20:34:14.657Z,59.91
2023-10-10T20:37:00.143Z,59.87
2023-10-10T20:39:45.708Z,59.57
2023-10-10T20:42:32.150Z,59.55
2023-10-10T20:45:19.730Z,59.67
2023-10-10T20:48:13.836Z,59.51
2023-10-10T20:50:59.530Z,59.70
2023-10-10T20:53:46.912Z,59.80
2023-10-10T20:56:32.931Z,59.59
2023-10-10T20:59:19.602Z,59.60
2023-10-10T21:02:04.749Z,59.63
2023-10-10T21:04:50.213Z,59.58
2023-10-10T21:07:39.314Z,59.67
2023-10-10T21:10:25.453Z,59.62
2023-10-10T21:13:10.779Z,59.72
2023-10-10T21:15:56.114Z,59.66
2023-10-10T21:18:41.591Z,59.57
2023-10-10T21:21:26.829Z,59.71
2023-10-10T21:24:12.239Z,59.63
2023-10-10T21:26:57.562Z,59.60
2023-10-10T21:29:43.167Z,59.65
2023-10-10T21:32:29.073Z,59.61
2023-10-10T21:35:14.255Z,59.59
2023-10-10T21:38:03.355Z,59.58
2023-10-10T21:40:50.558Z,59.50
2023-10-10T21:43:35.937Z,59.43
2023-10-10T21:46:21.224Z,59.46
2023-10-10T21:49:06.465Z,59.25
2023-10-10T21:51:51.817Z,59.39
2023-10-10T21:54:39.180Z,59.43
2023-10-10T21:57:24.708Z,59.54
2023-10-10T22:00:16.963Z,59.45
2023-10-10T22:03:06.217Z,59.46
2023-10-10T22:05:51.928Z,59.51
2023-10-10T22:08:37.712Z,59.48
2023-10-10T22:11:24.454Z,59.46
2023-10-10T22:14:12.859Z,59.44
2023-10-10T22:16:58.469Z,59.61
2023-10-10T22:19:43.852Z,59.54
2023-10-10T22:22:29.171Z,59.49
2023-10-10T22:25:25.175Z,59.48
2023-10-10T22:28:11.286Z,59.57
2023-10-10T22:30:56.626Z,59.35
2023-10-10T22:33:41.914Z,59.54
2023-10-10T22:36:28.904Z,59.51
2023-10-10T22:39:15.071Z,59.59
2023-10-10T22:42:00.722Z,59.49
2023-10-10T22:44:46.181Z,59.44
2023-10-10T22:47:31.473Z,59.61
2023-10-10T22:50:18.121Z,59.66
2023-10-10T22:53:05.702Z,59.53
2023-10-10T22:55:52.126Z,59.70
2023-10-10T22:58:37.345Z,59.69
2023-10-10T23:01:23.412Z,59.75
2023-10-10T23:04:09.072Z,59.62
2023-10-10T23:06:54.433Z,59.61
2023-10-10T23:09:42.740Z,59.67
2023-10-10T23:12:28.467Z,59.61
2023-10-10T23:15:13.834Z,59.80
2023-10-10T23:18:01.357Z,59.63
2023-10-10T23:20:47.324Z,59.64
2023-10-10T23:23:33.010Z,59.76
2023-10-10T23:26:22.136Z,59.90
2023-10-10T23:29:07.889Z,59.77
2023-10-10T23:31:53.531Z,59.74
2023-10-10T23:34:38.770Z,59.67
2023-10-10T23:37:24.788Z,59.73
2023-10-10T23:40:17.354Z,59.72
2023-10-10T23:43:02.758Z,59.71
2023-10-10T23:45:56.026Z,59.58
2023-10-10T23:48:41.747Z,59.00
2023-10-10T23:51:28.017Z,58.88
2023-10-10T23:54:13.833Z,58.60
2023-10-10T23:56:59.090Z,58.93
2023-10-10T23:59:44.571Z,59.56
